sensor_id;sensor_type;location;lat;lon;timestamp;P1;durP1;ratioP1;P2;durP2;ratioP2
66721;SDS011;53633;49.932;10.884;2024-03-22T00:00:57;9.98;;;4.18;;
66721;SDS011;53633;49.932;10.884;2024-03-22T00:03:24;10.05;;;4.20;;
66721;SDS011;53633;49.932;10.884;2024-03-22T00:05:50;11.13;;;4.13;;
66721;SDS011;53633;49.932;10.884;2024-03-22T00:08:16;9.93;;;3.93;;
66721;SDS011;53633;49.932;10.884;2024-03-22T00:10:42;9.00;;;3.60;;
66721;SDS011;53633;49.932;10.884;2024-03-22T00:13:07;8.40;;;3.65;;
66721;SDS011;53633;49.932;10.884;2024-03-22T00:15:33;11.18;;;3.72;;
66721;SDS011;53633;49.932;10.884;2024-03-22T00:17:59;10.65;;;3.97;;
66721;SDS011;53633;49.932;10.884;2024-03-22T00:20:26;10.70;;;4.23;;
66721;SDS011;53633;49.932;10.884;2024-03-22T00:22:52;11.20;;;3.97;;
66721;SDS011;53633;49.932;10.884;2024-03-22T00:25:18;10.77;;;3.50;;
66721;SDS011;53633;49.932;10.884;2024-03-22T00:27:44;8.93;;;3.20;;
66721;SDS011;53633;49.932;10.884;2024-03-22T00:30:10;11.05;;;4.00;;
66721;SDS011;53633;49.932;10.884;2024-03-22T00:32:36;9.05;;;3.38;;
66721;SDS011;53633;49.932;10.884;2024-03-22T00:35:02;10.07;;;3.17;;
66721;SDS011;53633;49.932;10.884;2024-03-22T00:37:30;8.10;;;3.47;;
66721;SDS011;53633;49.932;10.884;2024-03-22T00:39:56;9.38;;;3.78;;
66721;SDS011;53633;49.932;10.884;2024-03-22T00:42:22;9.43;;;3.78;;
66721;SDS011;53633;49.932;10.884;2024-03-22T00:44:48;9.37;;;3.93;;
66721;SDS011;53633;49.932;10.884;2024-03-22T00:47:14;10.18;;;3.67;;
66721;SDS011;53633;49.932;10.884;2024-03-22T00:49:40;8.75;;;3.15;;
66721;SDS011;53633;49.932;10.884;2024-03-22T00:52:06;8.50;;;3.30;;
66721;SDS011;53633;49.932;10.884;2024-03-22T00:54:33;9.13;;;3.40;;
66721;SDS011;53633;49.932;10.884;2024-03-22T00:56:59;10.13;;;3.88;;
66721;SDS011;53633;49.932;10.884;2024-03-22T00:59:25;10.30;;;3.80;;
66721;SDS011;53633;49.932;10.884;2024-03-22T01:01:51;9.63;;;4.05;;
66721;SDS011;53633;49.932;10.884;2024-03-22T01:04:17;9.73;;;4.07;;
66721;SDS011;53633;49.932;10.884;2024-03-22T01:06:43;10.27;;;3.73;;
66721;SDS011;53633;49.932;10.884;2024-03-22T01:09:09;9.43;;;3.83;;
66721;SDS011;53633;49.932;10.884;2024-03-22T01:11:36;10.55;;;3.67;;
66721;SDS011;53633;49.932;10.884;2024-03-22T01:14:02;10.65;;;3.42;;
66721;SDS011;53633;49.932;10.884;2024-03-22T01:16:27;10.23;;;3.50;;
66721;SDS011;53633;49.932;10.884;2024-03-22T01:18:53;9.27;;;3.42;;
66721;SDS011;53633;49.932;10.884;2024-03-22T01:21:19;10.35;;;4.30;;
66721;SDS011;53633;49.932;10.884;2024-03-22T01:23:45;10.52;;;3.88;;
66721;SDS011;53633;49.932;10.884;2024-03-22T01:26:11;9.30;;;3.97;;
66721;SDS011;53633;49.932;10.884;2024-03-22T01:28:38;13.23;;;3.73;;
66721;SDS011;53633;49.932;10.884;2024-03-22T01:31:05;11.38;;;4.18;;
66721;SDS011;53633;49.932;10.884;2024-03-22T01:33:30;10.35;;;4.18;;
66721;SDS011;53633;49.932;10.884;2024-03-22T01:35:56;10.73;;;3.97;;
66721;SDS011;53633;49.932;10.884;2024-03-22T01:38:22;9.70;;;3.75;;
66721;SDS011;53633;49.932;10.884;2024-03-22T01:40:48;8.93;;;3.83;;
66721;SDS011;53633;49.932;10.884;2024-03-22T01:43:14;10.65;;;3.80;;
66721;SDS011;53633;49.932;10.884;2024-03-22T01:45:41;8.07;;;3.60;;
66721;SDS011;53633;49.932;10.884;2024-03-22T01:48:07;9.53;;;4.23;;
66721;SDS011;53633;49.932;10.884;2024-03-22T01:50:33;10.27;;;3.65;;
66721;SDS011;53633;49.932;10.884;2024-03-22T01:53:00;10.32;;;4.07;;
66721;SDS011;53633;49.932;10.884;2024-03-22T01:55:26;10.63;;;4.15;;
66721;SDS011;53633;49.932;10.884;2024-03-22T01:57:52;10.63;;;4.28;;
66721;SDS011;53633;49.932;10.884;2024-03-22T02:00:18;11.27;;;3.90;;
66721;SDS011;53633;49.932;10.884;2024-03-22T02:02:46;10.77;;;4.10;;
66721;SDS011;53633;49.932;10.884;2024-03-22T02:05:12;9.20;;;3.97;;
66721;SDS011;53633;49.932;10.884;2024-03-22T02:07:38;9.13;;;3.85;;
66721;SDS011;53633;49.932;10.884;2024-03-22T02:10:04;9.70;;;3.77;;
66721;SDS011;53633;49.932;10.884;2024-03-22T02:12:31;9.93;;;3.70;;
66721;SDS011;53633;49.932;10.884;2024-03-22T02:14:57;10.82;;;3.63;;
66721;SDS011;53633;49.932;10.884;2024-03-22T02:17:23;10.40;;;3.93;;
66721;SDS011;53633;49.932;10.884;2024-03-22T02:19:50;9.63;;;2.90;;
66721;SDS011;53633;49.932;10.884;2024-03-22T02:22:16;11.23;;;3.55;;
66721;SDS011;53633;49.932;10.884;2024-03-22T02:24:43;9.27;;;3.77;;
66721;SDS011;53633;49.932;10.884;2024-03-22T02:27:09;8.55;;;3.35;;
66721;SDS011;53633;49.932;10.884;2024-03-22T02:29:34;9.65;;;3.95;;
66721;SDS011;53633;49.932;10.884;2024-03-22T02:32:00;9.63;;;3.97;;
66721;SDS011;53633;49.932;10.884;2024-03-22T02:34:26;10.30;;;3.70;;
66721;SDS011;53633;49.932;10.884;2024-03-22T02:36:52;11.60;;;3.93;;
66721;SDS011;53633;49.932;10.884;2024-03-22T02:39:18;12.05;;;4.20;;
66721;SDS011;53633;49.932;10.884;2024-03-22T02:41:45;8.90;;;3.53;;
66721;SDS011;53633;49.932;10.884;2024-03-22T02:44:11;11.23;;;3.78;;
66721;SDS011;53633;49.932;10.884;2024-03-22T02:46:37;11.13;;;3.80;;
66721;SDS011;53633;49.932;10.884;2024-03-22T02:49:02;9.98;;;3.25;;
66721;SDS011;53633;49.932;10.884;2024-03-22T02:51:28;9.13;;;3.87;;
66721;SDS011;53633;49.932;10.884;2024-03-22T02:53:54;9.50;;;3.60;;
66721;SDS011;53633;49.932;10.884;2024-03-22T02:56:20;10.00;;;3.27;;
66721;SDS011;53633;49.932;10.884;2024-03-22T02:58:47;9.10;;;3.20;;
66721;SDS011;53633;49.932;10.884;2024-03-22T03:01:14;10.23;;;3.65;;
66721;SDS011;53633;49.932;10.884;2024-03-22T03:03:40;9.30;;;3.97;;
66721;SDS011;53633;49.932;10.884;2024-03-22T03:06:06;10.25;;;3.78;;
66721;SDS011;53633;49.932;10.884;2024-03-22T03:08:31;8.15;;;3.20;;
66721;SDS011;53633;49.932;10.884;2024-03-22T03:10:57;11.27;;;3.88;;
66721;SDS011;53633;49.932;10.884;2024-03-22T03:13:23;9.07;;;3.72;;
66721;SDS011;53633;49.932;10.884;2024-03-22T03:15:50;9.43;;;3.23;;
66721;SDS011;53633;49.932;10.884;2024-03-22T03:18:16;9.98;;;3.67;;
66721;SDS011;53633;49.932;10.884;2024-03-22T03:20:42;8.85;;;3.22;;
66721;SDS011;53633;49.932;10.884;2024-03-22T03:23:08;9.73;;;3.53;;
66721;SDS011;53633;49.932;10.884;2024-03-22T03:25:35;10.25;;;4.45;;
66721;SDS011;53633;49.932;10.884;2024-03-22T03:28:01;11.00;;;4.00;;
66721;SDS011;53633;49.932;10.884;2024-03-22T03:30:27;9.57;;;3.95;;
66721;SDS011;53633;49.932;10.884;2024-03-22T03:32:54;14.77;;;4.40;;
66721;SDS011;53633;49.932;10.884;2024-03-22T03:35:20;9.73;;;4.75;;
66721;SDS011;53633;49.932;10.884;2024-03-22T03:37:46;9.37;;;3.90;;
66721;SDS011;53633;49.932;10.884;2024-03-22T03:40:11;11.65;;;3.60;;
66721;SDS011;53633;49.932;10.884;2024-03-22T03:42:37;9.75;;;3.30;;
66721;SDS011;53633;49.932;10.884;2024-03-22T03:45:03;7.97;;;3.03;;
66721;SDS011;53633;49.932;10.884;2024-03-22T03:47:29;10.27;;;3.72;;
66721;SDS011;53633;49.932;10.884;2024-03-22T03:49:56;11.00;;;3.47;;
66721;SDS011;53633;49.932;10.884;2024-03-22T03:52:22;10.80;;;3.33;;
66721;SDS011;53633;49.932;10.884;2024-03-22T03:54:48;8.63;;;3.70;;
66721;SDS011;53633;49.932;10.884;2024-03-22T03:57:14;10.00;;;3.67;;
66721;SDS011;53633;49.932;10.884;2024-03-22T03:59:40;8.77;;;3.47;;
66721;SDS011;53633;49.932;10.884;2024-03-22T04:02:05;9.43;;;3.50;;
66721;SDS011;53633;49.932;10.884;2024-03-22T04:04:31;10.70;;;3.77;;
66721;SDS011;53633;49.932;10.884;2024-03-22T04:06:59;8.40;;;3.50;;
66721;SDS011;53633;49.932;10.884;2024-03-22T04:09:25;9.30;;;3.70;;
66721;SDS011;53633;49.932;10.884;2024-03-22T04:11:51;8.40;;;3.25;;
66721;SDS011;53633;49.932;10.884;2024-03-22T04:14:17;8.80;;;3.47;;
66721;SDS011;53633;49.932;10.884;2024-03-22T04:16:43;10.27;;;3.70;;
66721;SDS011;53633;49.932;10.884;2024-03-22T04:19:09;9.60;;;3.20;;
66721;SDS011;53633;49.932;10.884;2024-03-22T04:21:35;8.63;;;3.45;;
66721;SDS011;53633;49.932;10.884;2024-03-22T04:24:02;10.50;;;3.83;;
66721;SDS011;53633;49.932;10.884;2024-03-22T04:26:28;10.93;;;3.78;;
66721;SDS011;53633;49.932;10.884;2024-03-22T04:28:54;9.13;;;3.50;;
66721;SDS011;53633;49.932;10.884;2024-03-22T04:31:20;9.05;;;3.45;;
66721;SDS011;53633;49.932;10.884;2024-03-22T04:33:45;9.77;;;3.23;;
66721;SDS011;53633;49.932;10.884;2024-03-22T04:36:11;8.55;;;3.45;;
66721;SDS011;53633;49.932;10.884;2024-03-22T04:38:37;10.80;;;4.63;;
66721;SDS011;53633;49.932;10.884;2024-03-22T04:41:05;10.02;;;3.58;;
66721;SDS011;53633;49.932;10.884;2024-03-22T04:43:30;8.55;;;3.38;;
66721;SDS011;53633;49.932;10.884;2024-03-22T04:45:56;10.43;;;3.88;;
66721;SDS011;53633;49.932;10.884;2024-03-22T04:48:23;10.45;;;3.90;;
66721;SDS011;53633;49.932;10.884;2024-03-22T04:50:49;8.95;;;3.70;;
66721;SDS011;53633;49.932;10.884;2024-03-22T04:53:15;10.07;;;3.67;;
66721;SDS011;53633;49.932;10.884;2024-03-22T04:55:42;10.60;;;4.03;;
66721;SDS011;53633;49.932;10.884;2024-03-22T04:58:09;10.23;;;3.70;;
66721;SDS011;53633;49.932;10.884;2024-03-22T05:00:37;11.45;;;3.85;;
66721;SDS011;53633;49.932;10.884;2024-03-22T05:03:02;8.82;;;3.42;;
66721;SDS011;53633;49.932;10.884;2024-03-22T05:05:28;9.23;;;4.10;;
66721;SDS011;53633;49.932;10.884;2024-03-22T05:07:54;10.60;;;4.13;;
66721;SDS011;53633;49.932;10.884;2024-03-22T05:10:20;11.57;;;4.25;;
66721;SDS011;53633;49.932;10.884;2024-03-22T05:12:46;12.43;;;4.47;;
66721;SDS011;53633;49.932;10.884;2024-03-22T05:15:13;11.23;;;4.40;;
66721;SDS011;53633;49.932;10.884;2024-03-22T05:17:39;9.65;;;3.70;;
66721;SDS011;53633;49.932;10.884;2024-03-22T05:20:06;11.00;;;4.27;;
66721;SDS011;53633;49.932;10.884;2024-03-22T05:22:32;9.65;;;3.65;;
66721;SDS011;53633;49.932;10.884;2024-03-22T05:24:59;11.75;;;4.63;;
66721;SDS011;53633;49.932;10.884;2024-03-22T05:27:25;13.07;;;4.70;;
66721;SDS011;53633;49.932;10.884;2024-03-22T05:29:51;11.07;;;4.33;;
66721;SDS011;53633;49.932;10.884;2024-03-22T05:32:18;11.32;;;4.45;;
66721;SDS011;53633;49.932;10.884;2024-03-22T05:34:43;12.83;;;4.73;;
66721;SDS011;53633;49.932;10.884;2024-03-22T05:37:09;13.45;;;5.03;;
66721;SDS011;53633;49.932;10.884;2024-03-22T05:39:35;11.77;;;5.27;;
66721;SDS011;53633;49.932;10.884;2024-03-22T05:42:01;13.48;;;5.40;;
66721;SDS011;53633;49.932;10.884;2024-03-22T05:44:26;13.03;;;5.53;;
66721;SDS011;53633;49.932;10.884;2024-03-22T05:46:53;14.60;;;5.05;;
66721;SDS011;53633;49.932;10.884;2024-03-22T05:49:21;19.40;;;6.38;;
66721;SDS011;53633;49.932;10.884;2024-03-22T05:51:48;12.55;;;6.22;;
66721;SDS011;53633;49.932;10.884;2024-03-22T05:54:14;15.23;;;5.80;;
66721;SDS011;53633;49.932;10.884;2024-03-22T05:56:41;14.57;;;5.90;;
66721;SDS011;53633;49.932;10.884;2024-03-22T05:59:07;15.07;;;5.75;;
66721;SDS011;53633;49.932;10.884;2024-03-22T06:01:33;16.13;;;6.27;;
66721;SDS011;53633;49.932;10.884;2024-03-22T06:03:59;14.13;;;5.28;;
66721;SDS011;53633;49.932;10.884;2024-03-22T06:06:26;16.50;;;5.72;;
66721;SDS011;53633;49.932;10.884;2024-03-22T06:08:52;13.47;;;5.70;;
66721;SDS011;53633;49.932;10.884;2024-03-22T06:11:19;13.98;;;5.55;;
66721;SDS011;53633;49.932;10.884;2024-03-22T06:13:45;15.00;;;5.68;;
66721;SDS011;53633;49.932;10.884;2024-03-22T06:16:11;17.40;;;6.70;;
66721;SDS011;53633;49.932;10.884;2024-03-22T06:18:37;16.63;;;6.70;;
66721;SDS011;53633;49.932;10.884;2024-03-22T06:21:04;13.90;;;5.97;;
66721;SDS011;53633;49.932;10.884;2024-03-22T06:23:32;14.52;;;5.85;;
66721;SDS011;53633;49.932;10.884;2024-03-22T06:25:59;17.73;;;6.60;;
66721;SDS011;53633;49.932;10.884;2024-03-22T06:28:26;19.43;;;6.80;;
66721;SDS011;53633;49.932;10.884;2024-03-22T06:30:53;19.85;;;7.15;;
66721;SDS011;53633;49.932;10.884;2024-03-22T06:33:19;17.42;;;7.00;;
66721;SDS011;53633;49.932;10.884;2024-03-22T06:35:46;17.03;;;7.03;;
66721;SDS011;53633;49.932;10.884;2024-03-22T06:38:13;22.50;;;7.47;;
66721;SDS011;53633;49.932;10.884;2024-03-22T06:40:41;22.67;;;7.38;;
66721;SDS011;53633;49.932;10.884;2024-03-22T06:43:07;19.67;;;7.47;;
66721;SDS011;53633;49.932;10.884;2024-03-22T06:45:32;24.13;;;7.60;;
66721;SDS011;53633;49.932;10.884;2024-03-22T06:47:58;18.98;;;7.82;;
66721;SDS011;53633;49.932;10.884;2024-03-22T06:50:24;17.90;;;7.70;;
66721;SDS011;53633;49.932;10.884;2024-03-22T06:52:52;18.63;;;7.72;;
66721;SDS011;53633;49.932;10.884;2024-03-22T06:55:18;23.23;;;7.63;;
66721;SDS011;53633;49.932;10.884;2024-03-22T06:57:46;20.17;;;7.73;;
66721;SDS011;53633;49.932;10.884;2024-03-22T07:00:13;20.02;;;8.38;;
66721;SDS011;53633;49.932;10.884;2024-03-22T07:02:39;19.30;;;8.88;;
66721;SDS011;53633;49.932;10.884;2024-03-22T07:05:05;19.92;;;8.05;;
66721;SDS011;53633;49.932;10.884;2024-03-22T07:07:31;19.83;;;8.52;;
66721;SDS011;53633;49.932;10.884;2024-03-22T07:09:57;22.17;;;8.70;;
66721;SDS011;53633;49.932;10.884;2024-03-22T07:12:23;22.15;;;8.20;;
66721;SDS011;53633;49.932;10.884;2024-03-22T07:14:50;22.77;;;8.50;;
66721;SDS011;53633;49.932;10.884;2024-03-22T07:17:16;26.38;;;9.18;;
66721;SDS011;53633;49.932;10.884;2024-03-22T07:19:42;24.50;;;9.30;;
66721;SDS011;53633;49.932;10.884;2024-03-22T07:22:08;23.35;;;9.13;;
66721;SDS011;53633;49.932;10.884;2024-03-22T07:24:33;21.25;;;9.07;;
66721;SDS011;53633;49.932;10.884;2024-03-22T07:26:59;23.63;;;8.87;;
66721;SDS011;53633;49.932;10.884;2024-03-22T07:29:25;23.55;;;9.65;;
66721;SDS011;53633;49.932;10.884;2024-03-22T07:31:52;20.40;;;8.67;;
66721;SDS011;53633;49.932;10.884;2024-03-22T07:34:18;21.67;;;9.00;;
66721;SDS011;53633;49.932;10.884;2024-03-22T07:36:44;24.10;;;9.10;;
66721;SDS011;53633;49.932;10.884;2024-03-22T07:39:10;22.53;;;8.70;;
66721;SDS011;53633;49.932;10.884;2024-03-22T07:41:35;20.80;;;8.95;;
66721;SDS011;53633;49.932;10.884;2024-03-22T07:44:03;19.13;;;8.50;;
66721;SDS011;53633;49.932;10.884;2024-03-22T07:46:29;19.43;;;7.80;;
66721;SDS011;53633;49.932;10.884;2024-03-22T07:48:56;19.02;;;8.73;;
66721;SDS011;53633;49.932;10.884;2024-03-22T07:51:22;23.33;;;9.15;;
66721;SDS011;53633;49.932;10.884;2024-03-22T07:53:50;21.33;;;9.65;;
66721;SDS011;53633;49.932;10.884;2024-03-22T07:56:16;20.03;;;8.87;;
66721;SDS011;53633;49.932;10.884;2024-03-22T07:58:41;18.08;;;8.60;;
66721;SDS011;53633;49.932;10.884;2024-03-22T08:01:07;22.73;;;9.97;;
66721;SDS011;53633;49.932;10.884;2024-03-22T08:03:33;19.65;;;8.65;;
66721;SDS011;53633;49.932;10.884;2024-03-22T08:06:02;19.23;;;9.30;;
66721;SDS011;53633;49.932;10.884;2024-03-22T08:08:28;20.20;;;9.47;;
66721;SDS011;53633;49.932;10.884;2024-03-22T08:10:54;19.38;;;9.50;;
66721;SDS011;53633;49.932;10.884;2024-03-22T08:13:20;21.88;;;9.77;;
66721;SDS011;53633;49.932;10.884;2024-03-22T08:15:46;18.93;;;9.17;;
66721;SDS011;53633;49.932;10.884;2024-03-22T08:18:12;26.45;;;9.35;;
66721;SDS011;53633;49.932;10.884;2024-03-22T08:20:38;21.73;;;10.13;;
66721;SDS011;53633;49.932;10.884;2024-03-22T08:23:05;19.07;;;9.53;;
66721;SDS011;53633;49.932;10.884;2024-03-22T08:25:30;19.85;;;9.18;;
66721;SDS011;53633;49.932;10.884;2024-03-22T08:27:56;22.20;;;10.48;;
66721;SDS011;53633;49.932;10.884;2024-03-22T08:30:22;19.43;;;9.53;;
66721;SDS011;53633;49.932;10.884;2024-03-22T08:32:48;19.23;;;9.00;;
66721;SDS011;53633;49.932;10.884;2024-03-22T08:35:14;18.00;;;9.20;;
66721;SDS011;53633;49.932;10.884;2024-03-22T08:37:40;18.52;;;9.20;;
66721;SDS011;53633;49.932;10.884;2024-03-22T08:40:07;18.67;;;10.13;;
66721;SDS011;53633;49.932;10.884;2024-03-22T08:42:37;18.27;;;9.23;;
66721;SDS011;53633;49.932;10.884;2024-03-22T08:45:03;17.85;;;9.73;;
66721;SDS011;53633;49.932;10.884;2024-03-22T08:47:29;20.10;;;9.38;;
66721;SDS011;53633;49.932;10.884;2024-03-22T08:49:55;18.93;;;9.40;;
66721;SDS011;53633;49.932;10.884;2024-03-22T08:52:27;17.38;;;8.57;;
66721;SDS011;53633;49.932;10.884;2024-03-22T08:54:52;17.92;;;8.82;;
66721;SDS011;53633;49.932;10.884;2024-03-22T08:57:20;20.00;;;8.93;;
66721;SDS011;53633;49.932;10.884;2024-03-22T08:59:45;21.17;;;9.20;;
66721;SDS011;53633;49.932;10.884;2024-03-22T09:02:14;17.52;;;8.80;;
66721;SDS011;53633;49.932;10.884;2024-03-22T09:04:40;17.90;;;8.63;;
66721;SDS011;53633;49.932;10.884;2024-03-22T09:07:06;17.10;;;8.73;;
66721;SDS011;53633;49.932;10.884;2024-03-22T09:09:32;19.23;;;9.23;;
66721;SDS011;53633;49.932;10.884;2024-03-22T09:11:58;20.90;;;9.30;;
66721;SDS011;53633;49.932;10.884;2024-03-22T09:14:25;18.80;;;9.47;;
66721;SDS011;53633;49.932;10.884;2024-03-22T09:16:51;20.95;;;9.25;;
66721;SDS011;53633;49.932;10.884;2024-03-22T09:19:16;19.55;;;8.75;;
66721;SDS011;53633;49.932;10.884;2024-03-22T09:21:42;17.13;;;8.80;;
66721;SDS011;53633;49.932;10.884;2024-03-22T09:24:08;18.58;;;9.90;;
66721;SDS011;53633;49.932;10.884;2024-03-22T09:26:34;17.97;;;9.00;;
66721;SDS011;53633;49.932;10.884;2024-03-22T09:28:59;19.38;;;9.48;;
66721;SDS011;53633;49.932;10.884;2024-03-22T09:31:26;18.87;;;8.77;;
66721;SDS011;53633;49.932;10.884;2024-03-22T09:33:52;18.60;;;8.77;;
66721;SDS011;53633;49.932;10.884;2024-03-22T09:36:18;18.65;;;8.98;;
66721;SDS011;53633;49.932;10.884;2024-03-22T09:38:44;19.20;;;8.97;;
66721;SDS011;53633;49.932;10.884;2024-03-22T09:41:10;18.50;;;8.77;;
66721;SDS011;53633;49.932;10.884;2024-03-22T09:43:35;16.85;;;8.13;;
66721;SDS011;53633;49.932;10.884;2024-03-22T09:46:03;19.97;;;8.80;;
66721;SDS011;53633;49.932;10.884;2024-03-22T09:48:31;19.10;;;9.55;;
66721;SDS011;53633;49.932;10.884;2024-03-22T09:50:58;19.52;;;9.07;;
66721;SDS011;53633;49.932;10.884;2024-03-22T09:53:26;19.85;;;9.45;;
66721;SDS011;53633;49.932;10.884;2024-03-22T09:55:54;18.30;;;8.75;;
66721;SDS011;53633;49.932;10.884;2024-03-22T09:58:22;18.00;;;9.43;;
66721;SDS011;53633;49.932;10.884;2024-03-22T10:00:48;19.60;;;8.70;;
66721;SDS011;53633;49.932;10.884;2024-03-22T10:03:14;19.03;;;9.20;;
66721;SDS011;53633;49.932;10.884;2024-03-22T10:05:41;18.98;;;8.80;;
66721;SDS011;53633;49.932;10.884;2024-03-22T10:08:07;17.10;;;8.45;;
66721;SDS011;53633;49.932;10.884;2024-03-22T10:10:33;17.33;;;8.70;;
66721;SDS011;53633;49.932;10.884;2024-03-22T10:13:00;17.73;;;9.05;;
66721;SDS011;53633;49.932;10.884;2024-03-22T10:15:25;18.45;;;8.40;;
66721;SDS011;53633;49.932;10.884;2024-03-22T10:17:51;17.08;;;8.15;;
66721;SDS011;53633;49.932;10.884;2024-03-22T10:20:17;18.33;;;8.30;;
66721;SDS011;53633;49.932;10.884;2024-03-22T10:22:47;17.52;;;8.25;;
66721;SDS011;53633;49.932;10.884;2024-03-22T10:25:14;15.70;;;8.13;;
66721;SDS011;53633;49.932;10.884;2024-03-22T10:27:39;17.25;;;8.02;;
66721;SDS011;53633;49.932;10.884;2024-03-22T10:30:06;16.08;;;7.47;;
66721;SDS011;53633;49.932;10.884;2024-03-22T10:32:35;16.93;;;8.27;;
66721;SDS011;53633;49.932;10.884;2024-03-22T10:35:01;16.58;;;7.18;;
66721;SDS011;53633;49.932;10.884;2024-03-22T10:37:28;15.68;;;7.90;;
66721;SDS011;53633;49.932;10.884;2024-03-22T10:39:56;16.48;;;7.80;;
66721;SDS011;53633;49.932;10.884;2024-03-22T10:42:23;17.88;;;8.10;;
66721;SDS011;53633;49.932;10.884;2024-03-22T10:44:49;15.90;;;6.93;;
66721;SDS011;53633;49.932;10.884;2024-03-22T10:47:15;15.23;;;7.30;;
66721;SDS011;53633;49.932;10.884;2024-03-22T10:49:43;15.98;;;7.53;;
66721;SDS011;53633;49.932;10.884;2024-03-22T10:52:13;13.70;;;6.83;;
66721;SDS011;53633;49.932;10.884;2024-03-22T10:54:40;12.75;;;6.40;;
66721;SDS011;53633;49.932;10.884;2024-03-22T10:57:11;13.60;;;6.25;;
66721;SDS011;53633;49.932;10.884;2024-03-22T10:59:40;13.85;;;6.63;;
66721;SDS011;53633;49.932;10.884;2024-03-22T11:02:06;14.00;;;6.60;;
66721;SDS011;53633;49.932;10.884;2024-03-22T11:04:35;12.43;;;5.83;;
66721;SDS011;53633;49.932;10.884;2024-03-22T11:07:01;14.05;;;5.90;;
66721;SDS011;53633;49.932;10.884;2024-03-22T11:09:27;13.45;;;5.93;;
66721;SDS011;53633;49.932;10.884;2024-03-22T11:11:53;11.93;;;5.47;;
66721;SDS011;53633;49.932;10.884;2024-03-22T11:14:20;11.23;;;5.30;;
66721;SDS011;53633;49.932;10.884;2024-03-22T11:16:46;13.25;;;5.82;;
66721;SDS011;53633;49.932;10.884;2024-03-22T11:19:12;12.80;;;6.00;;
66721;SDS011;53633;49.932;10.884;2024-03-22T11:21:38;12.40;;;5.73;;
66721;SDS011;53633;49.932;10.884;2024-03-22T11:24:04;11.90;;;5.70;;
66721;SDS011;53633;49.932;10.884;2024-03-22T11:26:30;11.95;;;4.72;;
66721;SDS011;53633;49.932;10.884;2024-03-22T11:28:56;11.97;;;4.40;;
66721;SDS011;53633;49.932;10.884;2024-03-22T11:31:23;11.73;;;4.53;;
66721;SDS011;53633;49.932;10.884;2024-03-22T11:33:49;11.38;;;5.43;;
66721;SDS011;53633;49.932;10.884;2024-03-22T11:36:14;14.00;;;7.33;;
66721;SDS011;53633;49.932;10.884;2024-03-22T11:38:40;17.42;;;7.25;;
66721;SDS011;53633;49.932;10.884;2024-03-22T11:41:07;14.20;;;7.22;;
66721;SDS011;53633;49.932;10.884;2024-03-22T11:43:32;15.60;;;7.03;;
66721;SDS011;53633;49.932;10.884;2024-03-22T11:45:58;15.30;;;7.38;;
66721;SDS011;53633;49.932;10.884;2024-03-22T11:48:25;15.93;;;7.15;;
66721;SDS011;53633;49.932;10.884;2024-03-22T11:50:51;14.77;;;7.25;;
66721;SDS011;53633;49.932;10.884;2024-03-22T11:53:17;11.87;;;6.60;;
66721;SDS011;53633;49.932;10.884;2024-03-22T11:55:42;15.57;;;7.07;;
66721;SDS011;53633;49.932;10.884;2024-03-22T11:58:08;14.20;;;6.93;;
66721;SDS011;53633;49.932;10.884;2024-03-22T12:00:34;14.65;;;6.78;;
66721;SDS011;53633;49.932;10.884;2024-03-22T12:03:00;14.73;;;6.77;;
66721;SDS011;53633;49.932;10.884;2024-03-22T12:05:27;13.50;;;6.72;;
66721;SDS011;53633;49.932;10.884;2024-03-22T12:07:55;13.85;;;6.97;;
66721;SDS011;53633;49.932;10.884;2024-03-22T12:10:21;12.50;;;6.45;;
66721;SDS011;53633;49.932;10.884;2024-03-22T12:12:47;15.17;;;6.93;;
66721;SDS011;53633;49.932;10.884;2024-03-22T12:15:12;13.40;;;6.07;;
66721;SDS011;53633;49.932;10.884;2024-03-22T12:17:38;13.83;;;5.20;;
66721;SDS011;53633;49.932;10.884;2024-03-22T12:20:04;9.20;;;3.90;;
66721;SDS011;53633;49.932;10.884;2024-03-22T12:22:32;9.07;;;3.33;;
66721;SDS011;53633;49.932;10.884;2024-03-22T12:24:58;10.13;;;3.50;;
66721;SDS011;53633;49.932;10.884;2024-03-22T12:27:23;10.93;;;3.30;;
66721;SDS011;53633;49.932;10.884;2024-03-22T12:29:49;11.50;;;4.18;;
66721;SDS011;53633;49.932;10.884;2024-03-22T12:32:15;9.57;;;3.17;;
66721;SDS011;53633;49.932;10.884;2024-03-22T12:34:41;7.00;;;3.08;;
66721;SDS011;53633;49.932;10.884;2024-03-22T12:37:06;8.17;;;2.60;;
66721;SDS011;53633;49.932;10.884;2024-03-22T12:39:33;8.15;;;2.75;;
66721;SDS011;53633;49.932;10.884;2024-03-22T12:41:59;8.23;;;3.03;;
66721;SDS011;53633;49.932;10.884;2024-03-22T12:44:25;8.23;;;3.30;;
66721;SDS011;53633;49.932;10.884;2024-03-22T12:46:51;8.07;;;3.53;;
66721;SDS011;53633;49.932;10.884;2024-03-22T12:49:16;8.85;;;3.33;;
66721;SDS011;53633;49.932;10.884;2024-03-22T12:51:42;8.13;;;3.60;;
66721;SDS011;53633;49.932;10.884;2024-03-22T12:54:08;8.43;;;3.55;;
66721;SDS011;53633;49.932;10.884;2024-03-22T12:56:35;7.38;;;3.17;;
66721;SDS011;53633;49.932;10.884;2024-03-22T12:59:01;8.55;;;4.05;;
66721;SDS011;53633;49.932;10.884;2024-03-22T13:01:27;8.17;;;3.20;;
66721;SDS011;53633;49.932;10.884;2024-03-22T13:03:53;7.50;;;3.00;;
66721;SDS011;53633;49.932;10.884;2024-03-22T13:06:19;7.97;;;3.20;;
66721;SDS011;53633;49.932;10.884;2024-03-22T13:08:44;7.97;;;3.00;;
66721;SDS011;53633;49.932;10.884;2024-03-22T13:11:10;7.50;;;2.67;;
66721;SDS011;53633;49.932;10.884;2024-03-22T13:13:38;11.20;;;3.10;;
66721;SDS011;53633;49.932;10.884;2024-03-22T13:16:03;6.75;;;2.78;;
66721;SDS011;53633;49.932;10.884;2024-03-22T13:18:29;6.55;;;2.60;;
66721;SDS011;53633;49.932;10.884;2024-03-22T13:20:55;5.90;;;2.30;;
66721;SDS011;53633;49.932;10.884;2024-03-22T13:23:21;4.80;;;1.70;;
66721;SDS011;53633;49.932;10.884;2024-03-22T13:25:47;5.05;;;1.92;;
66721;SDS011;53633;49.932;10.884;2024-03-22T13:28:12;4.80;;;2.00;;
66721;SDS011;53633;49.932;10.884;2024-03-22T13:30:40;7.03;;;2.30;;
66721;SDS011;53633;49.932;10.884;2024-03-22T13:33:05;6.63;;;1.80;;
66721;SDS011;53633;49.932;10.884;2024-03-22T13:35:31;7.90;;;1.90;;
66721;SDS011;53633;49.932;10.884;2024-03-22T13:37:57;5.15;;;2.00;;
66721;SDS011;53633;49.932;10.884;2024-03-22T13:40:23;5.47;;;2.13;;
66721;SDS011;53633;49.932;10.884;2024-03-22T13:42:52;5.43;;;2.03;;
66721;SDS011;53633;49.932;10.884;2024-03-22T13:45:18;6.82;;;2.00;;
66721;SDS011;53633;49.932;10.884;2024-03-22T13:47:45;6.03;;;2.50;;
66721;SDS011;53633;49.932;10.884;2024-03-22T13:50:10;6.50;;;2.75;;
66721;SDS011;53633;49.932;10.884;2024-03-22T13:52:36;5.85;;;2.20;;
66721;SDS011;53633;49.932;10.884;2024-03-22T13:55:02;7.00;;;2.80;;
66721;SDS011;53633;49.932;10.884;2024-03-22T13:57:28;6.63;;;2.80;;
66721;SDS011;53633;49.932;10.884;2024-03-22T13:59:54;7.88;;;2.30;;
66721;SDS011;53633;49.932;10.884;2024-03-22T14:02:20;5.57;;;1.93;;
66721;SDS011;53633;49.932;10.884;2024-03-22T14:04:47;6.30;;;2.17;;
66721;SDS011;53633;49.932;10.884;2024-03-22T14:07:12;6.82;;;2.10;;
66721;SDS011;53633;49.932;10.884;2024-03-22T14:09:38;6.17;;;2.20;;
66721;SDS011;53633;49.932;10.884;2024-03-22T14:12:04;5.20;;;1.90;;
66721;SDS011;53633;49.932;10.884;2024-03-22T14:14:30;5.45;;;1.77;;
66721;SDS011;53633;49.932;10.884;2024-03-22T14:16:56;7.23;;;2.37;;
66721;SDS011;53633;49.932;10.884;2024-03-22T14:19:21;4.53;;;1.70;;